Terminal Aerodrome Forecast
Issued by NWS Charleston, WV

Current Version | Previous Version | Graphics & Text | Print | Product List | Glossary On
Versions: 1 2 3 4 5 6 7 8 9 10 11 12 13 14 15 16 17 18 19 20 21 22 23
000
FTUS41 KRLX 170200 AAA
TAFPKB
TAF AMD
KPKB 170244Z 1703/1724 VRB03KT P6SM SCT200
     FM170400 00000KT 5SM BR FEW250
     FM170600 00000KT 1/4SM FG VV001
     FM171300 00000KT 2SM BR FEW040
     FM171400 00000KT P6SM FEW040
     FM172000 30004KT P6SM FEW040=

USA.gov is the U.S. government's official web portal to all federal, state and local government web resources and services.